sensor_id;sensor_type;location;lat;lon;timestamp;temperature;humidity
58517;DHT22;44308;50.810;0.284;2022-09-09T00:07:01;16.60;99.90
58517;DHT22;44308;50.810;0.284;2022-09-09T00:09:31;16.50;99.90
58517;DHT22;44308;50.810;0.284;2022-09-09T00:12:29;16.50;99.90
58517;DHT22;44308;50.810;0.284;2022-09-09T00:15:20;16.60;99.90
58517;DHT22;44308;50.810;0.284;2022-09-09T00:20:52;16.50;99.90
58517;DHT22;44308;50.810;0.284;2022-09-09T00:23:28;16.50;99.90
58517;DHT22;44308;50.810;0.284;2022-09-09T00:28:58;16.60;99.90
58517;DHT22;44308;50.810;0.284;2022-09-09T00:31:30;16.50;99.90
58517;DHT22;44308;50.810;0.284;2022-09-09T00:34:18;16.70;99.90
58517;DHT22;44308;50.810;0.284;2022-09-09T00:36:45;16.80;99.90
58517;DHT22;44308;50.810;0.284;2022-09-09T00:39:34;16.70;99.90
58517;DHT22;44308;50.810;0.284;2022-09-09T00:42:06;16.60;99.90
58517;DHT22;44308;50.810;0.284;2022-09-09T00:47:39;16.50;99.90
58517;DHT22;44308;50.810;0.284;2022-09-09T00:52:52;16.50;99.90
58517;DHT22;44308;50.810;0.284;2022-09-09T00:58:08;16.60;99.90
58517;DHT22;44308;50.810;0.284;2022-09-09T01:00:42;16.10;99.90
58517;DHT22;44308;50.810;0.284;2022-09-09T01:09:32;15.90;99.90
58517;DHT22;44308;50.810;0.284;2022-09-09T01:25:20;15.80;99.90
58517;DHT22;44308;50.810;0.284;2022-09-09T01:27:48;15.70;99.90
58517;DHT22;44308;50.810;0.284;2022-09-09T01:30:17;15.60;99.90
58517;DHT22;44308;50.810;0.284;2022-09-09T01:32:49;15.70;99.90
58517;DHT22;44308;50.810;0.284;2022-09-09T01:35:31;15.90;99.90
58517;DHT22;44308;50.810;0.284;2022-09-09T01:37:58;15.90;99.90
58517;DHT22;44308;50.810;0.284;2022-09-09T01:40:24;15.80;99.90
58517;DHT22;44308;50.810;0.284;2022-09-09T01:42:51;16.00;99.90
58517;DHT22;44308;50.810;0.284;2022-09-09T01:45:18;15.70;99.90
58517;DHT22;44308;50.810;0.284;2022-09-09T01:47:45;16.00;99.90
58517;DHT22;44308;50.810;0.284;2022-09-09T01:50:13;15.90;99.90
58517;DHT22;44308;50.810;0.284;2022-09-09T01:52:40;15.60;99.90
58517;DHT22;44308;50.810;0.284;2022-09-09T01:55:08;15.80;99.90
58517;DHT22;44308;50.810;0.284;2022-09-09T01:57:57;15.80;99.90
58517;DHT22;44308;50.810;0.284;2022-09-09T02:00:26;15.50;99.90
58517;DHT22;44308;50.810;0.284;2022-09-09T02:03:29;15.50;99.90
58517;DHT22;44308;50.810;0.284;2022-09-09T02:08:28;15.70;99.90
58517;DHT22;44308;50.810;0.284;2022-09-09T02:13:29;15.40;99.90
58517;DHT22;44308;50.810;0.284;2022-09-09T02:16:00;15.50;99.90
58517;DHT22;44308;50.810;0.284;2022-09-09T02:21:06;15.50;99.90
58517;DHT22;44308;50.810;0.284;2022-09-09T02:23:34;15.70;99.90
58517;DHT22;44308;50.810;0.284;2022-09-09T02:26:20;15.60;99.90
58517;DHT22;44308;50.810;0.284;2022-09-09T02:28:50;15.30;99.90
58517;DHT22;44308;50.810;0.284;2022-09-09T02:31:22;15.30;99.90
58517;DHT22;44308;50.810;0.284;2022-09-09T02:34:06;15.50;99.90
58517;DHT22;44308;50.810;0.284;2022-09-09T02:36:37;15.40;99.90
58517;DHT22;44308;50.810;0.284;2022-09-09T02:39:06;15.10;99.90
58517;DHT22;44308;50.810;0.284;2022-09-09T02:41:36;15.40;99.90
58517;DHT22;44308;50.810;0.284;2022-09-09T02:44:24;15.30;99.90
58517;DHT22;44308;50.810;0.284;2022-09-09T02:55:40;15.10;99.90
58517;DHT22;44308;50.810;0.284;2022-09-09T02:58:10;15.20;99.90
58517;DHT22;44308;50.810;0.284;2022-09-09T03:00:38;15.20;99.90
58517;DHT22;44308;50.810;0.284;2022-09-09T03:03:05;15.10;99.90
58517;DHT22;44308;50.810;0.284;2022-09-09T03:05:51;14.90;99.90
58517;DHT22;44308;50.810;0.284;2022-09-09T03:08:17;14.90;99.90
58517;DHT22;44308;50.810;0.284;2022-09-09T03:10:43;15.00;99.90
58517;DHT22;44308;50.810;0.284;2022-09-09T03:13:09;14.90;99.90
58517;DHT22;44308;50.810;0.284;2022-09-09T03:15:35;15.00;99.90
58517;DHT22;44308;50.810;0.284;2022-09-09T03:18:00;14.80;99.90
58517;DHT22;44308;50.810;0.284;2022-09-09T03:20:28;14.70;99.90
58517;DHT22;44308;50.810;0.284;2022-09-09T03:22:55;14.70;99.90
58517;DHT22;44308;50.810;0.284;2022-09-09T03:25:22;14.80;99.90
58517;DHT22;44308;50.810;0.284;2022-09-09T03:27:52;14.90;99.90
58517;DHT22;44308;50.810;0.284;2022-09-09T03:30:21;14.70;99.90
58517;DHT22;44308;50.810;0.284;2022-09-09T03:32:47;14.80;99.90
58517;DHT22;44308;50.810;0.284;2022-09-09T03:38:20;14.70;99.90
58517;DHT22;44308;50.810;0.284;2022-09-09T03:40:53;14.60;99.90
58517;DHT22;44308;50.810;0.284;2022-09-09T03:43:26;14.60;99.90
58517;DHT22;44308;50.810;0.284;2022-09-09T03:45:53;14.80;99.90
58517;DHT22;44308;50.810;0.284;2022-09-09T03:48:23;14.80;99.90
58517;DHT22;44308;50.810;0.284;2022-09-09T03:50:51;14.70;99.90
58517;DHT22;44308;50.810;0.284;2022-09-09T03:53:20;14.60;99.90
58517;DHT22;44308;50.810;0.284;2022-09-09T03:55:50;14.60;99.90
58517;DHT22;44308;50.810;0.284;2022-09-09T03:58:18;14.60;99.90
58517;DHT22;44308;50.810;0.284;2022-09-09T04:00:55;14.60;99.90
58517;DHT22;44308;50.810;0.284;2022-09-09T04:03:20;14.60;99.90
58517;DHT22;44308;50.810;0.284;2022-09-09T04:05:55;14.60;99.90
58517;DHT22;44308;50.810;0.284;2022-09-09T04:08:22;14.60;99.90
58517;DHT22;44308;50.810;0.284;2022-09-09T04:10:49;14.40;99.90
58517;DHT22;44308;50.810;0.284;2022-09-09T04:13:16;14.40;99.90
58517;DHT22;44308;50.810;0.284;2022-09-09T04:15:44;14.50;99.90
58517;DHT22;44308;50.810;0.284;2022-09-09T04:18:15;14.60;99.90
58517;DHT22;44308;50.810;0.284;2022-09-09T04:20:41;14.60;99.90
58517;DHT22;44308;50.810;0.284;2022-09-09T04:23:09;14.60;99.90
58517;DHT22;44308;50.810;0.284;2022-09-09T04:25:34;14.70;99.90
58517;DHT22;44308;50.810;0.284;2022-09-09T04:28:00;14.60;99.90
58517;DHT22;44308;50.810;0.284;2022-09-09T04:30:26;14.80;99.90
58517;DHT22;44308;50.810;0.284;2022-09-09T04:32:53;14.80;99.90
58517;DHT22;44308;50.810;0.284;2022-09-09T04:35:21;14.80;99.90
58517;DHT22;44308;50.810;0.284;2022-09-09T04:37:46;14.60;99.90
58517;DHT22;44308;50.810;0.284;2022-09-09T04:40:14;14.80;99.90
58517;DHT22;44308;50.810;0.284;2022-09-09T04:42:40;14.90;99.90
58517;DHT22;44308;50.810;0.284;2022-09-09T04:45:09;14.80;99.90
58517;DHT22;44308;50.810;0.284;2022-09-09T04:47:36;14.80;99.90
58517;DHT22;44308;50.810;0.284;2022-09-09T04:50:02;14.90;99.90
58517;DHT22;44308;50.810;0.284;2022-09-09T04:52:28;14.80;99.90
58517;DHT22;44308;50.810;0.284;2022-09-09T04:54:55;14.80;99.90
58517;DHT22;44308;50.810;0.284;2022-09-09T04:57:21;15.10;99.90
58517;DHT22;44308;50.810;0.284;2022-09-09T04:59:46;15.00;99.90
58517;DHT22;44308;50.810;0.284;2022-09-09T05:02:13;15.00;99.90
58517;DHT22;44308;50.810;0.284;2022-09-09T05:04:41;14.90;99.90
58517;DHT22;44308;50.810;0.284;2022-09-09T05:07:07;15.00;99.90
58517;DHT22;44308;50.810;0.284;2022-09-09T05:09:33;15.00;99.90
58517;DHT22;44308;50.810;0.284;2022-09-09T05:12:02;15.10;99.90
58517;DHT22;44308;50.810;0.284;2022-09-09T05:14:28;15.00;99.90
58517;DHT22;44308;50.810;0.284;2022-09-09T05:16:55;15.00;99.90
58517;DHT22;44308;50.810;0.284;2022-09-09T05:19:21;15.00;99.90
58517;DHT22;44308;50.810;0.284;2022-09-09T05:21:47;15.20;99.90
58517;DHT22;44308;50.810;0.284;2022-09-09T05:24:14;15.20;99.90
58517;DHT22;44308;50.810;0.284;2022-09-09T05:26:40;15.10;99.90
58517;DHT22;44308;50.810;0.284;2022-09-09T05:29:06;15.10;99.90
58517;DHT22;44308;50.810;0.284;2022-09-09T05:31:34;15.10;99.90
58517;DHT22;44308;50.810;0.284;2022-09-09T05:34:19;15.00;99.90
58517;DHT22;44308;50.810;0.284;2022-09-09T05:36:46;15.10;99.90
58517;DHT22;44308;50.810;0.284;2022-09-09T05:39:12;15.20;99.90
58517;DHT22;44308;50.810;0.284;2022-09-09T05:41:38;15.30;99.90
58517;DHT22;44308;50.810;0.284;2022-09-09T05:44:06;15.30;99.90
58517;DHT22;44308;50.810;0.284;2022-09-09T05:46:32;15.20;99.90
58517;DHT22;44308;50.810;0.284;2022-09-09T05:48:57;15.30;99.90
58517;DHT22;44308;50.810;0.284;2022-09-09T05:51:27;15.30;99.90
58517;DHT22;44308;50.810;0.284;2022-09-09T05:53:58;15.20;99.90
58517;DHT22;44308;50.810;0.284;2022-09-09T05:56:26;15.20;99.90
58517;DHT22;44308;50.810;0.284;2022-09-09T05:58:53;15.30;99.90
58517;DHT22;44308;50.810;0.284;2022-09-09T06:01:33;15.30;99.90
58517;DHT22;44308;50.810;0.284;2022-09-09T06:04:18;15.30;99.90
58517;DHT22;44308;50.810;0.284;2022-09-09T06:06:47;15.30;99.90
58517;DHT22;44308;50.810;0.284;2022-09-09T06:09:14;15.40;99.90
58517;DHT22;44308;50.810;0.284;2022-09-09T06:11:40;15.30;99.90
58517;DHT22;44308;50.810;0.284;2022-09-09T06:14:26;15.50;99.90
58517;DHT22;44308;50.810;0.284;2022-09-09T06:16:52;15.50;99.90
58517;DHT22;44308;50.810;0.284;2022-09-09T06:19:18;15.40;99.90
58517;DHT22;44308;50.810;0.284;2022-09-09T06:21:46;15.50;99.90
58517;DHT22;44308;50.810;0.284;2022-09-09T06:24:32;15.70;99.90
58517;DHT22;44308;50.810;0.284;2022-09-09T06:26:58;16.00;99.90
58517;DHT22;44308;50.810;0.284;2022-09-09T06:29:23;16.00;99.90
58517;DHT22;44308;50.810;0.284;2022-09-09T06:31:49;15.80;99.90
58517;DHT22;44308;50.810;0.284;2022-09-09T06:34:16;15.70;99.90
58517;DHT22;44308;50.810;0.284;2022-09-09T06:36:42;15.70;99.90
58517;DHT22;44308;50.810;0.284;2022-09-09T06:39:08;15.90;99.90
58517;DHT22;44308;50.810;0.284;2022-09-09T06:41:36;15.90;99.90
58517;DHT22;44308;50.810;0.284;2022-09-09T06:44:03;15.80;99.90
58517;DHT22;44308;50.810;0.284;2022-09-09T06:46:31;16.00;99.90
58517;DHT22;44308;50.810;0.284;2022-09-09T06:48:58;16.00;99.90
58517;DHT22;44308;50.810;0.284;2022-09-09T06:51:36;15.90;99.90
58517;DHT22;44308;50.810;0.284;2022-09-09T06:56:51;16.10;99.90
58517;DHT22;44308;50.810;0.284;2022-09-09T06:59:17;16.10;99.90
58517;DHT22;44308;50.810;0.284;2022-09-09T07:01:43;16.10;99.90
58517;DHT22;44308;50.810;0.284;2022-09-09T07:04:12;16.10;99.90
58517;DHT22;44308;50.810;0.284;2022-09-09T07:06:44;16.20;99.90
58517;DHT22;44308;50.810;0.284;2022-09-09T07:09:14;16.20;99.90
58517;DHT22;44308;50.810;0.284;2022-09-09T07:11:45;16.20;99.90
58517;DHT22;44308;50.810;0.284;2022-09-09T07:17:16;16.20;99.90
58517;DHT22;44308;50.810;0.284;2022-09-09T07:19:42;16.30;99.90
58517;DHT22;44308;50.810;0.284;2022-09-09T07:22:08;16.40;99.90
58517;DHT22;44308;50.810;0.284;2022-09-09T07:27:48;16.20;99.90
58517;DHT22;44308;50.810;0.284;2022-09-09T07:30:14;16.30;99.90
58517;DHT22;44308;50.810;0.284;2022-09-09T07:32:40;16.30;99.90
58517;DHT22;44308;50.810;0.284;2022-09-09T07:35:07;16.40;99.90
58517;DHT22;44308;50.810;0.284;2022-09-09T07:37:36;16.40;99.90
58517;DHT22;44308;50.810;0.284;2022-09-09T07:40:03;16.40;99.90
58517;DHT22;44308;50.810;0.284;2022-09-09T07:42:29;16.60;99.90
58517;DHT22;44308;50.810;0.284;2022-09-09T07:44:54;16.60;99.90
58517;DHT22;44308;50.810;0.284;2022-09-09T07:47:20;16.70;99.90
58517;DHT22;44308;50.810;0.284;2022-09-09T07:49:46;16.80;99.90
58517;DHT22;44308;50.810;0.284;2022-09-09T07:52:15;16.90;99.90
58517;DHT22;44308;50.810;0.284;2022-09-09T07:54:42;17.00;99.90
58517;DHT22;44308;50.810;0.284;2022-09-09T07:57:08;17.20;99.90
58517;DHT22;44308;50.810;0.284;2022-09-09T07:59:33;17.20;99.90
58517;DHT22;44308;50.810;0.284;2022-09-09T08:01:59;17.30;99.90
58517;DHT22;44308;50.810;0.284;2022-09-09T08:04:26;17.30;99.90
58517;DHT22;44308;50.810;0.284;2022-09-09T08:06:59;17.50;99.90
58517;DHT22;44308;50.810;0.284;2022-09-09T08:09:25;17.40;99.90
58517;DHT22;44308;50.810;0.284;2022-09-09T08:11:54;17.30;99.90
58517;DHT22;44308;50.810;0.284;2022-09-09T08:14:22;17.40;99.90
58517;DHT22;44308;50.810;0.284;2022-09-09T08:16:49;17.40;99.90
58517;DHT22;44308;50.810;0.284;2022-09-09T08:19:16;17.60;99.90
58517;DHT22;44308;50.810;0.284;2022-09-09T08:21:43;17.60;99.90
58517;DHT22;44308;50.810;0.284;2022-09-09T08:24:10;17.70;99.90
58517;DHT22;44308;50.810;0.284;2022-09-09T08:26:41;17.70;99.90
58517;DHT22;44308;50.810;0.284;2022-09-09T08:29:11;17.70;99.90
58517;DHT22;44308;50.810;0.284;2022-09-09T08:31:39;17.60;99.90
58517;DHT22;44308;50.810;0.284;2022-09-09T08:34:05;17.80;99.90
58517;DHT22;44308;50.810;0.284;2022-09-09T08:36:34;17.80;99.90
58517;DHT22;44308;50.810;0.284;2022-09-09T08:39:03;17.80;99.90
58517;DHT22;44308;50.810;0.284;2022-09-09T08:45:14;18.20;99.90
58517;DHT22;44308;50.810;0.284;2022-09-09T08:47:53;18.60;99.90
58517;DHT22;44308;50.810;0.284;2022-09-09T08:50:27;18.80;99.90
58517;DHT22;44308;50.810;0.284;2022-09-09T08:53:17;18.70;99.90
58517;DHT22;44308;50.810;0.284;2022-09-09T08:55:52;18.90;99.90
58517;DHT22;44308;50.810;0.284;2022-09-09T09:06:01;18.60;99.90
58517;DHT22;44308;50.810;0.284;2022-09-09T09:08:43;18.50;99.90
58517;DHT22;44308;50.810;0.284;2022-09-09T09:11:11;18.70;99.90
58517;DHT22;44308;50.810;0.284;2022-09-09T09:13:58;19.20;99.90
58517;DHT22;44308;50.810;0.284;2022-09-09T09:16:57;19.50;99.90
58517;DHT22;44308;50.810;0.284;2022-09-09T09:19:24;19.90;99.90
58517;DHT22;44308;50.810;0.284;2022-09-09T09:27:32;20.40;99.90
58517;DHT22;44308;50.810;0.284;2022-09-09T09:30:12;20.40;99.90
58517;DHT22;44308;50.810;0.284;2022-09-09T09:32:42;20.30;99.90
58517;DHT22;44308;50.810;0.284;2022-09-09T09:35:13;20.30;99.90
58517;DHT22;44308;50.810;0.284;2022-09-09T09:37:40;19.90;99.90
58517;DHT22;44308;50.810;0.284;2022-09-09T09:40:13;19.50;99.90
58517;DHT22;44308;50.810;0.284;2022-09-09T09:42:54;19.30;99.90
58517;DHT22;44308;50.810;0.284;2022-09-09T09:45:33;18.90;99.90
58517;DHT22;44308;50.810;0.284;2022-09-09T09:48:05;18.60;99.90
58517;DHT22;44308;50.810;0.284;2022-09-09T09:50:32;18.50;99.90
58517;DHT22;44308;50.810;0.284;2022-09-09T09:53:22;18.50;99.90
58517;DHT22;44308;50.810;0.284;2022-09-09T09:55:59;18.50;99.90
58517;DHT22;44308;50.810;0.284;2022-09-09T09:58:31;19.10;99.90
58517;DHT22;44308;50.810;0.284;2022-09-09T10:01:01;20.10;99.90
58517;DHT22;44308;50.810;0.284;2022-09-09T10:03:30;20.30;99.90
58517;DHT22;44308;50.810;0.284;2022-09-09T10:05:56;20.30;99.90
58517;DHT22;44308;50.810;0.284;2022-09-09T10:08:26;20.30;99.90
58517;DHT22;44308;50.810;0.284;2022-09-09T10:11:22;19.90;99.90
58517;DHT22;44308;50.810;0.284;2022-09-09T10:17:33;19.40;99.90
58517;DHT22;44308;50.810;0.284;2022-09-09T10:21:19;19.20;99.90
58517;DHT22;44308;50.810;0.284;2022-09-09T10:24:04;19.20;99.90
58517;DHT22;44308;50.810;0.284;2022-09-09T10:29:30;19.60;99.90
58517;DHT22;44308;50.810;0.284;2022-09-09T10:35:51;20.10;99.90
58517;DHT22;44308;50.810;0.284;2022-09-09T10:38:21;20.30;99.90
58517;DHT22;44308;50.810;0.284;2022-09-09T10:46:13;19.90;99.90
58517;DHT22;44308;50.810;0.284;2022-09-09T10:52:10;20.40;99.90
58517;DHT22;44308;50.810;0.284;2022-09-09T10:55:10;20.60;99.90
58517;DHT22;44308;50.810;0.284;2022-09-09T10:57:40;20.60;99.90
58517;DHT22;44308;50.810;0.284;2022-09-09T11:00:18;20.50;99.90
58517;DHT22;44308;50.810;0.284;2022-09-09T11:02:53;20.80;99.90
58517;DHT22;44308;50.810;0.284;2022-09-09T11:08:14;21.30;99.90
58517;DHT22;44308;50.810;0.284;2022-09-09T11:10:42;21.30;99.90
58517;DHT22;44308;50.810;0.284;2022-09-09T11:16:05;20.80;99.90
58517;DHT22;44308;50.810;0.284;2022-09-09T11:18:40;20.40;99.90
58517;DHT22;44308;50.810;0.284;2022-09-09T11:21:17;20.10;99.90
58517;DHT22;44308;50.810;0.284;2022-09-09T11:24:08;20.00;99.90
58517;DHT22;44308;50.810;0.284;2022-09-09T11:26:47;20.20;99.90
58517;DHT22;44308;50.810;0.284;2022-09-09T11:38:27;20.60;99.90
58517;DHT22;44308;50.810;0.284;2022-09-09T11:41:11;20.30;99.90
58517;DHT22;44308;50.810;0.284;2022-09-09T11:43:39;20.20;99.90
58517;DHT22;44308;50.810;0.284;2022-09-09T11:46:06;20.30;99.90
58517;DHT22;44308;50.810;0.284;2022-09-09T11:48:57;21.10;99.90
58517;DHT22;44308;50.810;0.284;2022-09-09T11:53:55;22.10;99.90
58517;DHT22;44308;50.810;0.284;2022-09-09T11:56:34;22.30;99.90
58517;DHT22;44308;50.810;0.284;2022-09-09T11:59:25;22.10;99.90
58517;DHT22;44308;50.810;0.284;2022-09-09T12:04:30;22.10;99.90
58517;DHT22;44308;50.810;0.284;2022-09-09T12:09:48;22.60;99.90
58517;DHT22;44308;50.810;0.284;2022-09-09T12:19:40;22.40;99.90
58517;DHT22;44308;50.810;0.284;2022-09-09T12:22:28;22.30;99.90
58517;DHT22;44308;50.810;0.284;2022-09-09T12:30:32;21.60;99.90
58517;DHT22;44308;50.810;0.284;2022-09-09T12:33:15;21.60;99.90
58517;DHT22;44308;50.810;0.284;2022-09-09T12:35:46;21.90;99.90
58517;DHT22;44308;50.810;0.284;2022-09-09T12:38:43;22.20;99.90
58517;DHT22;44308;50.810;0.284;2022-09-09T12:41:26;21.90;99.90
58517;DHT22;44308;50.810;0.284;2022-09-09T12:44:13;21.90;99.90
58517;DHT22;44308;50.810;0.284;2022-09-09T12:46:42;21.90;99.90
58517;DHT22;44308;50.810;0.284;2022-09-09T12:52:31;21.60;99.90
58517;DHT22;44308;50.810;0.284;2022-09-09T12:55:00;21.30;99.90
58517;DHT22;44308;50.810;0.284;2022-09-09T12:57:35;21.10;99.90
58517;DHT22;44308;50.810;0.284;2022-09-09T13:00:15;21.10;99.90
58517;DHT22;44308;50.810;0.284;2022-09-09T13:02:53;21.10;99.90
58517;DHT22;44308;50.810;0.284;2022-09-09T13:05:22;21.00;99.90
58517;DHT22;44308;50.810;0.284;2022-09-09T13:07:48;21.10;99.90
58517;DHT22;44308;50.810;0.284;2022-09-09T13:10:19;21.00;99.90
58517;DHT22;44308;50.810;0.284;2022-09-09T13:12:47;20.70;99.90
58517;DHT22;44308;50.810;0.284;2022-09-09T13:15:23;20.50;99.90
58517;DHT22;44308;50.810;0.284;2022-09-09T13:17:52;20.20;99.90
58517;DHT22;44308;50.810;0.284;2022-09-09T13:20:21;20.20;99.90
58517;DHT22;44308;50.810;0.284;2022-09-09T13:22:49;20.10;99.90
58517;DHT22;44308;50.810;0.284;2022-09-09T13:25:26;20.00;99.90
58517;DHT22;44308;50.810;0.284;2022-09-09T13:35:32;19.70;99.90
58517;DHT22;44308;50.810;0.284;2022-09-09T13:37:59;19.70;99.90
58517;DHT22;44308;50.810;0.284;2022-09-09T13:40:31;19.70;99.90
58517;DHT22;44308;50.810;0.284;2022-09-09T13:42:57;19.60;99.90
58517;DHT22;44308;50.810;0.284;2022-09-09T13:45:26;19.60;99.90
58517;DHT22;44308;50.810;0.284;2022-09-09T13:47:53;19.60;99.90
58517;DHT22;44308;50.810;0.284;2022-09-09T13:50:28;19.70;99.90
58517;DHT22;44308;50.810;0.284;2022-09-09T13:52:55;19.80;99.90
58517;DHT22;44308;50.810;0.284;2022-09-09T13:55:25;19.80;99.90
58517;DHT22;44308;50.810;0.284;2022-09-09T13:58:03;19.80;99.90
58517;DHT22;44308;50.810;0.284;2022-09-09T14:00:32;20.00;99.90
58517;DHT22;44308;50.810;0.284;2022-09-09T14:02:58;20.20;99.90
58517;DHT22;44308;50.810;0.284;2022-09-09T14:05:27;20.30;99.90
58517;DHT22;44308;50.810;0.284;2022-09-09T14:07:53;20.20;99.90
58517;DHT22;44308;50.810;0.284;2022-09-09T14:10:19;20.20;99.90
58517;DHT22;44308;50.810;0.284;2022-09-09T14:12:45;20.20;99.90
58517;DHT22;44308;50.810;0.284;2022-09-09T14:15:12;20.30;99.90
58517;DHT22;44308;50.810;0.284;2022-09-09T14:17:41;20.30;99.90
58517;DHT22;44308;50.810;0.284;2022-09-09T14:20:07;20.20;99.90
58517;DHT22;44308;50.810;0.284;2022-09-09T14:22:34;20.40;99.90
58517;DHT22;44308;50.810;0.284;2022-09-09T14:25:02;20.50;99.90
58517;DHT22;44308;50.810;0.284;2022-09-09T14:27:28;20.90;99.90
58517;DHT22;44308;50.810;0.284;2022-09-09T14:29:53;20.80;99.90
58517;DHT22;44308;50.810;0.284;2022-09-09T14:32:20;20.60;99.90
58517;DHT22;44308;50.810;0.284;2022-09-09T14:34:48;20.40;99.90
58517;DHT22;44308;50.810;0.284;2022-09-09T14:37:17;20.40;99.90
58517;DHT22;44308;50.810;0.284;2022-09-09T14:39:44;20.10;99.90
58517;DHT22;44308;50.810;0.284;2022-09-09T14:42:12;19.90;99.90
58517;DHT22;44308;50.810;0.284;2022-09-09T14:44:38;19.80;99.90
58517;DHT22;44308;50.810;0.284;2022-09-09T14:47:08;19.60;99.90
58517;DHT22;44308;50.810;0.284;2022-09-09T14:49:37;19.50;99.90
58517;DHT22;44308;50.810;0.284;2022-09-09T14:52:04;19.40;99.90
58517;DHT22;44308;50.810;0.284;2022-09-09T14:54:31;19.30;99.90
58517;DHT22;44308;50.810;0.284;2022-09-09T14:56:58;19.20;99.90
58517;DHT22;44308;50.810;0.284;2022-09-09T14:59:24;19.30;99.90
58517;DHT22;44308;50.810;0.284;2022-09-09T15:01:49;19.30;99.90
58517;DHT22;44308;50.810;0.284;2022-09-09T15:04:15;19.40;99.90
58517;DHT22;44308;50.810;0.284;2022-09-09T15:06:42;19.80;99.90
58517;DHT22;44308;50.810;0.284;2022-09-09T15:09:12;20.40;99.90
58517;DHT22;44308;50.810;0.284;2022-09-09T15:11:38;20.70;99.90
58517;DHT22;44308;50.810;0.284;2022-09-09T15:14:06;20.90;99.90
58517;DHT22;44308;50.810;0.284;2022-09-09T15:16:32;20.70;99.90
58517;DHT22;44308;50.810;0.284;2022-09-09T15:19:00;20.50;99.90
58517;DHT22;44308;50.810;0.284;2022-09-09T15:21:31;20.60;99.90
58517;DHT22;44308;50.810;0.284;2022-09-09T15:24:00;20.60;99.90
58517;DHT22;44308;50.810;0.284;2022-09-09T15:26:27;20.60;99.90
58517;DHT22;44308;50.810;0.284;2022-09-09T15:28:54;20.50;99.90
58517;DHT22;44308;50.810;0.284;2022-09-09T15:31:22;20.30;99.90
58517;DHT22;44308;50.810;0.284;2022-09-09T15:36:47;20.50;99.90
58517;DHT22;44308;50.810;0.284;2022-09-09T15:39:13;20.70;99.90
58517;DHT22;44308;50.810;0.284;2022-09-09T15:41:42;20.80;99.90
58517;DHT22;44308;50.810;0.284;2022-09-09T15:44:10;20.70;99.90
58517;DHT22;44308;50.810;0.284;2022-09-09T15:46:39;20.70;99.90
58517;DHT22;44308;50.810;0.284;2022-09-09T15:49:09;20.90;99.90
58517;DHT22;44308;50.810;0.284;2022-09-09T15:51:37;21.10;99.90
58517;DHT22;44308;50.810;0.284;2022-09-09T15:54:03;21.30;99.90
58517;DHT22;44308;50.810;0.284;2022-09-09T15:56:29;21.20;99.90
58517;DHT22;44308;50.810;0.284;2022-09-09T15:58:59;21.30;99.90
58517;DHT22;44308;50.810;0.284;2022-09-09T16:01:26;21.40;99.90
58517;DHT22;44308;50.810;0.284;2022-09-09T16:03:53;21.30;99.90
58517;DHT22;44308;50.810;0.284;2022-09-09T16:06:21;21.00;99.90
58517;DHT22;44308;50.810;0.284;2022-09-09T16:08:49;20.50;99.90
58517;DHT22;44308;50.810;0.284;2022-09-09T16:11:20;20.20;99.90
58517;DHT22;44308;50.810;0.284;2022-09-09T16:13:49;20.00;99.90
58517;DHT22;44308;50.810;0.284;2022-09-09T16:16:17;19.90;99.90
58517;DHT22;44308;50.810;0.284;2022-09-09T16:18:56;19.70;99.90
58517;DHT22;44308;50.810;0.284;2022-09-09T16:21:25;19.50;99.90
58517;DHT22;44308;50.810;0.284;2022-09-09T16:23:52;19.50;99.90
58517;DHT22;44308;50.810;0.284;2022-09-09T16:26:21;19.40;99.90
58517;DHT22;44308;50.810;0.284;2022-09-09T16:28:47;19.40;99.90
58517;DHT22;44308;50.810;0.284;2022-09-09T16:31:21;19.30;99.90
58517;DHT22;44308;50.810;0.284;2022-09-09T16:33:47;19.30;99.90
58517;DHT22;44308;50.810;0.284;2022-09-09T16:36:15;19.40;99.90
58517;DHT22;44308;50.810;0.284;2022-09-09T16:38:42;19.30;99.90
58517;DHT22;44308;50.810;0.284;2022-09-09T16:41:12;19.30;99.90
58517;DHT22;44308;50.810;0.284;2022-09-09T16:43:38;19.30;99.90
58517;DHT22;44308;50.810;0.284;2022-09-09T16:46:18;19.40;99.90
58517;DHT22;44308;50.810;0.284;2022-09-09T16:48:46;19.50;99.90
58517;DHT22;44308;50.810;0.284;2022-09-09T16:51:24;19.40;99.90
58517;DHT22;44308;50.810;0.284;2022-09-09T16:53:51;19.50;99.90
58517;DHT22;44308;50.810;0.284;2022-09-09T16:56:18;19.40;99.90
58517;DHT22;44308;50.810;0.284;2022-09-09T16:58:51;19.40;99.90
58517;DHT22;44308;50.810;0.284;2022-09-09T17:01:17;19.40;99.90
58517;DHT22;44308;50.810;0.284;2022-09-09T17:03:44;19.40;99.90
58517;DHT22;44308;50.810;0.284;2022-09-09T17:06:11;19.40;99.90
58517;DHT22;44308;50.810;0.284;2022-09-09T17:08:38;19.60;99.90
58517;DHT22;44308;50.810;0.284;2022-09-09T17:11:14;19.50;99.90
58517;DHT22;44308;50.810;0.284;2022-09-09T17:13:42;19.50;99.90
58517;DHT22;44308;50.810;0.284;2022-09-09T17:16:07;19.40;99.90
58517;DHT22;44308;50.810;0.284;2022-09-09T17:18:34;19.30;99.90
58517;DHT22;44308;50.810;0.284;2022-09-09T17:21:07;19.20;99.90
58517;DHT22;44308;50.810;0.284;2022-09-09T17:23:35;19.10;99.90
58517;DHT22;44308;50.810;0.284;2022-09-09T17:26:05;19.00;99.90
58517;DHT22;44308;50.810;0.284;2022-09-09T17:28:33;18.90;99.90
58517;DHT22;44308;50.810;0.284;2022-09-09T17:31:00;18.80;99.90
58517;DHT22;44308;50.810;0.284;2022-09-09T17:33:31;18.80;99.90
58517;DHT22;44308;50.810;0.284;2022-09-09T17:36:19;18.80;99.90
58517;DHT22;44308;50.810;0.284;2022-09-09T17:38:45;18.80;99.90
58517;DHT22;44308;50.810;0.284;2022-09-09T17:41:18;18.70;99.90
58517;DHT22;44308;50.810;0.284;2022-09-09T17:43:44;18.70;99.90
58517;DHT22;44308;50.810;0.284;2022-09-09T17:46:19;18.80;99.90
58517;DHT22;44308;50.810;0.284;2022-09-09T17:48:47;18.70;99.90
58517;DHT22;44308;50.810;0.284;2022-09-09T17:51:15;18.60;99.90
58517;DHT22;44308;50.810;0.284;2022-09-09T17:53:43;18.60;99.90
58517;DHT22;44308;50.810;0.284;2022-09-09T17:56:11;18.50;99.90
58517;DHT22;44308;50.810;0.284;2022-09-09T17:58:38;18.40;99.90
58517;DHT22;44308;50.810;0.284;2022-09-09T18:01:13;18.30;99.90
58517;DHT22;44308;50.810;0.284;2022-09-09T18:03:40;18.30;99.90
58517;DHT22;44308;50.810;0.284;2022-09-09T18:06:10;18.30;99.90
58517;DHT22;44308;50.810;0.284;2022-09-09T18:08:39;18.20;99.90
58517;DHT22;44308;50.810;0.284;2022-09-09T18:11:06;18.10;99.90
58517;DHT22;44308;50.810;0.284;2022-09-09T18:13:32;18.10;99.90
58517;DHT22;44308;50.810;0.284;2022-09-09T18:15:59;18.00;99.90
58517;DHT22;44308;50.810;0.284;2022-09-09T18:18:26;17.90;99.90
58517;DHT22;44308;50.810;0.284;2022-09-09T18:21:06;17.80;99.90
58517;DHT22;44308;50.810;0.284;2022-09-09T18:23:37;17.80;99.90
58517;DHT22;44308;50.810;0.284;2022-09-09T18:26:11;17.70;99.90